Terminal Aerodrome Forecast
Issued by NWS Jackson, KY

Home | Current Version | Previous Version | Text Only | Print | Product List | Glossary On
Versions: 1 2 3 4 5 6 7 8 9 10 11 12 13 14
420
FTUS43 KJKL 300000 CCA
TAFJKL
TAF COR
KJKL 300000Z 3000/3024 11004KT P6SM VCSH BKN050
     FM300100 15004KT P6SM SCT250
     FM301600 19008KT P6SM SCT120
     FM301800 20012G24KT P6SM SCT100
     FM302100 19010G18KT P6SM VCTS SCT050CB
     FM302300 18008KT P6SM FEW250=

USA.gov is the U.S. government's official web portal to all federal, state and local government web resources and services.